createdAt,value
2024-02-08T00:00:01.008Z,6.40
2024-02-08T00:02:28.753Z,7.13
2024-02-08T00:04:56.874Z,7.20
2024-02-08T00:07:24.511Z,7.40
2024-02-08T00:09:57.182Z,7.03
2024-02-08T00:12:25.611Z,6.77
2024-02-08T00:14:53.540Z,7.85
2024-02-08T00:17:21.589Z,7.20
2024-02-08T00:19:52.733Z,7.05
2024-02-08T00:22:21.883Z,7.35
2024-02-08T00:24:49.961Z,6.83
2024-02-08T00:27:20.468Z,6.63
2024-02-08T00:29:48.579Z,6.53
2024-02-08T00:32:16.341Z,6.13
2024-02-08T00:34:44.512Z,6.50
2024-02-08T00:37:12.233Z,7.07
2024-02-08T00:39:45.998Z,6.43
2024-02-08T00:42:13.809Z,6.30
2024-02-08T00:44:51.938Z,6.30
2024-02-08T00:47:19.578Z,6.18
2024-02-08T00:49:49.882Z,6.95
2024-02-08T00:52:20.573Z,6.80
2024-02-08T00:54:52.253Z,7.47
2024-02-08T00:57:19.939Z,6.65
2024-02-08T00:59:47.934Z,7.28
2024-02-08T01:02:15.642Z,5.97
2024-02-08T01:04:50.926Z,5.70
2024-02-08T01:07:18.758Z,6.03
2024-02-08T01:09:46.576Z,5.85
2024-02-08T01:12:14.560Z,5.35
2024-02-08T01:14:43.790Z,5.70
2024-02-08T01:17:11.875Z,6.68
2024-02-08T01:19:39.921Z,7.57
2024-02-08T01:22:07.578Z,7.20
2024-02-08T01:24:36.282Z,7.20
2024-02-08T01:27:05.672Z,7.03
2024-02-08T01:29:33.572Z,7.68
2024-02-08T01:32:02.313Z,9.10
2024-02-08T01:34:30.870Z,9.63
2024-02-08T01:37:01.554Z,9.55
2024-02-08T01:39:29.678Z,8.77
2024-02-08T01:41:57.193Z,9.23
2024-02-08T01:44:25.284Z,9.02
2024-02-08T01:46:53.002Z,7.82
2024-02-08T01:49:30.983Z,8.05
2024-02-08T01:52:02.595Z,7.25
2024-02-08T01:54:31.931Z,11.15
2024-02-08T01:57:00.740Z,7.70
2024-02-08T01:59:29.687Z,7.15
2024-02-08T02:01:58.096Z,10.40
2024-02-08T02:04:26.068Z,9.60
2024-02-08T02:06:55.192Z,9.63
2024-02-08T02:09:26.681Z,10.95
2024-02-08T02:12:19.058Z,9.32
2024-02-08T02:14:48.058Z,8.57
2024-02-08T02:17:17.893Z,5.90
2024-02-08T02:19:48.403Z,7.10
2024-02-08T02:22:20.748Z,6.47
2024-02-08T02:24:51.721Z,6.38
2024-02-08T02:27:19.997Z,6.40
2024-02-08T02:29:54.821Z,6.60
2024-02-08T02:32:23.337Z,6.80
2024-02-08T02:34:53.037Z,5.88
2024-02-08T02:37:20.728Z,6.00
2024-02-08T02:39:48.597Z,6.13
2024-02-08T02:42:16.505Z,8.75
2024-02-08T02:44:44.418Z,9.05
2024-02-08T02:47:12.030Z,11.00
2024-02-08T02:49:40.446Z,9.40
2024-02-08T02:52:11.816Z,9.52
2024-02-08T02:54:42.216Z,10.13
2024-02-08T02:57:13.069Z,15.48
2024-02-08T02:59:43.691Z,17.80
2024-02-08T03:02:11.453Z,17.45
2024-02-08T03:04:39.525Z,14.93
2024-02-08T03:07:08.096Z,9.17
2024-02-08T03:09:35.947Z,13.63
2024-02-08T03:12:03.742Z,11.88
2024-02-08T03:14:31.573Z,14.82
2024-02-08T03:17:03.308Z,11.77
2024-02-08T03:19:37.549Z,10.70
2024-02-08T03:22:09.614Z,10.05
2024-02-08T03:24:38.394Z,9.50
2024-02-08T03:27:09.529Z,9.52
2024-02-08T03:29:37.698Z,8.68
2024-02-08T03:32:05.731Z,9.43
2024-02-08T03:34:37.054Z,8.57
2024-02-08T03:37:08.056Z,9.32
2024-02-08T03:39:37.003Z,7.85
2024-02-08T03:42:08.391Z,8.82
2024-02-08T03:44:37.375Z,9.20
2024-02-08T03:47:07.093Z,7.68
2024-02-08T03:49:36.907Z,8.27
2024-02-08T03:52:05.947Z,9.27
2024-02-08T03:54:34.607Z,8.65
2024-02-08T03:57:07.641Z,8.30
2024-02-08T03:59:42.660Z,7.68
2024-02-08T04:02:11.556Z,7.22
2024-02-08T04:05:13.872Z,7.22
2024-02-08T04:07:58.747Z,6.32
2024-02-08T04:10:36.389Z,6.80
2024-02-08T04:13:23.281Z,7.05
2024-02-08T04:16:09.737Z,7.65
2024-02-08T04:18:57.258Z,8.52
2024-02-08T04:21:44.084Z,7.82
2024-02-08T04:24:30.655Z,7.93
2024-02-08T04:27:17.394Z,7.65
2024-02-08T04:30:03.878Z,7.57
2024-02-08T04:32:50.439Z,7.18
2024-02-08T04:35:37.000Z,7.82
2024-02-08T04:38:23.949Z,6.85
2024-02-08T04:41:10.464Z,6.50
2024-02-08T04:43:56.804Z,6.22
2024-02-08T04:46:45.735Z,5.97
2024-02-08T04:49:34.377Z,5.65
2024-02-08T04:52:21.374Z,5.80
2024-02-08T04:54:50.126Z,5.85
2024-02-08T04:57:17.656Z,5.78
2024-02-08T04:59:47.037Z,5.60
2024-02-08T05:02:15.889Z,6.00
2024-02-08T05:04:51.155Z,6.15
2024-02-08T05:07:19.684Z,6.88
2024-02-08T05:09:47.845Z,6.40
2024-02-08T05:12:15.456Z,7.28
2024-02-08T05:14:43.320Z,6.90
2024-02-08T05:17:11.400Z,5.85
2024-02-08T05:19:46.022Z,5.88
2024-02-08T05:22:15.306Z,9.57
2024-02-08T05:24:43.404Z,8.10
2024-02-08T05:27:12.912Z,6.47
2024-02-08T05:29:43.214Z,6.70
2024-02-08T05:32:12.024Z,7.10
2024-02-08T05:34:41.345Z,6.82
2024-02-08T05:37:09.130Z,6.88
2024-02-08T05:39:37.960Z,6.70
2024-02-08T05:42:10.027Z,6.80
2024-02-08T05:44:42.270Z,7.00
2024-02-08T05:47:11.635Z,7.43
2024-02-08T05:49:51.161Z,8.13
2024-02-08T05:52:19.978Z,7.18
2024-02-08T05:54:50.932Z,7.80
2024-02-08T05:57:18.548Z,6.68
2024-02-08T05:59:47.266Z,6.55
2024-02-08T06:02:25.993Z,6.30
2024-02-08T06:05:02.957Z,7.18
2024-02-08T06:07:32.729Z,6.20
2024-02-08T06:10:24.907Z,6.78
2024-02-08T06:13:01.670Z,6.28
2024-02-08T06:15:38.708Z,5.43
2024-02-08T06:18:06.925Z,6.43
2024-02-08T06:20:43.099Z,6.43
2024-02-08T06:23:19.713Z,5.50
2024-02-08T06:26:24.594Z,5.75
2024-02-08T06:28:55.459Z,5.63
2024-02-08T06:31:35.385Z,6.88
2024-02-08T06:34:32.708Z,5.13
2024-02-08T06:37:18.451Z,5.82
2024-02-08T06:39:58.500Z,5.18
2024-02-08T06:42:46.212Z,5.45
2024-02-08T06:45:34.244Z,5.53
2024-02-08T06:48:02.391Z,5.70
2024-02-08T06:50:48.900Z,5.30
2024-02-08T06:53:38.716Z,5.43
2024-02-08T06:56:26.106Z,4.93
2024-02-08T06:59:12.677Z,5.03
2024-02-08T07:01:59.150Z,5.10
2024-02-08T07:04:48.040Z,5.03
2024-02-08T07:07:35.469Z,5.88
2024-02-08T07:10:23.101Z,6.47
2024-02-08T07:13:09.228Z,5.07
2024-02-08T07:15:56.031Z,4.33
2024-02-08T07:18:49.522Z,4.65
2024-02-08T07:21:42.230Z,4.90
2024-02-08T07:24:29.751Z,4.75
2024-02-08T07:30:36.276Z,4.63
2024-02-08T07:33:23.772Z,4.10
2024-02-08T07:36:10.081Z,3.92
2024-02-08T07:39:16.393Z,4.00
2024-02-08T07:41:55.412Z,3.58
2024-02-08T07:44:24.694Z,4.23
2024-02-08T07:46:55.526Z,4.07
2024-02-08T07:49:45.774Z,3.88
2024-02-08T07:52:35.498Z,3.65
2024-02-08T07:55:22.256Z,4.40
2024-02-08T07:57:54.643Z,4.70
2024-02-08T08:00:49.002Z,4.35
2024-02-08T08:03:18.041Z,4.07
2024-02-08T08:05:47.114Z,4.00
2024-02-08T08:08:34.503Z,4.00
2024-02-08T08:11:07.396Z,4.13
2024-02-08T08:13:55.539Z,4.55
2024-02-08T08:16:31.120Z,4.50
2024-02-08T08:19:11.457Z,4.20
2024-02-08T08:22:17.339Z,4.38
2024-02-08T08:25:01.982Z,4.13
2024-02-08T08:27:35.137Z,4.47
2024-02-08T08:30:07.763Z,4.15
2024-02-08T08:32:55.981Z,4.53
2024-02-08T08:35:36.145Z,4.78
2024-02-08T08:38:36.321Z,4.17
2024-02-08T08:41:08.904Z,4.65
2024-02-08T08:43:39.039Z,4.30
2024-02-08T08:46:12.609Z,4.20
2024-02-08T08:48:45.042Z,4.38
2024-02-08T08:51:13.511Z,4.60
2024-02-08T08:53:45.498Z,4.10
2024-02-08T08:56:13.801Z,4.53
2024-02-08T08:58:43.234Z,4.32
2024-02-08T09:01:24.003Z,4.35
2024-02-08T09:04:27.839Z,4.70
2024-02-08T09:06:56.017Z,4.60
2024-02-08T09:09:39.770Z,4.40
2024-02-08T09:12:09.651Z,4.63
2024-02-08T09:14:50.430Z,4.30
2024-02-08T09:17:27.021Z,4.70
2024-02-08T09:20:03.534Z,3.90
2024-02-08T09:22:36.058Z,4.30
2024-02-08T09:25:26.685Z,4.78
2024-02-08T09:28:07.310Z,4.93
2024-02-08T09:30:41.687Z,7.50
2024-02-08T09:33:16.353Z,7.15
2024-02-08T09:35:44.763Z,4.90
2024-02-08T09:38:20.472Z,3.88
2024-02-08T09:40:52.611Z,4.05
2024-02-08T09:43:20.527Z,7.57
2024-02-08T09:46:13.712Z,8.98
2024-02-08T09:48:49.233Z,6.07
2024-02-08T09:51:27.365Z,3.88
2024-02-08T09:53:55.922Z,5.10
2024-02-08T09:56:30.556Z,4.33
2024-02-08T09:59:10.553Z,5.32
2024-02-08T10:01:46.869Z,8.27
2024-02-08T10:04:22.354Z,6.70
2024-02-08T10:07:07.461Z,14.43
2024-02-08T10:09:55.159Z,9.00
2024-02-08T10:12:33.830Z,4.55
2024-02-08T10:15:02.205Z,4.03
2024-02-08T10:17:43.128Z,3.58
2024-02-08T10:20:29.588Z,4.03
2024-02-08T10:23:01.940Z,3.33
2024-02-08T10:25:50.664Z,3.55
2024-02-08T10:28:25.065Z,4.05
2024-02-08T10:31:08.096Z,3.30
2024-02-08T10:33:41.442Z,3.83
2024-02-08T10:36:17.513Z,4.60
2024-02-08T10:39:05.174Z,5.00
2024-02-08T10:41:41.923Z,5.57
2024-02-08T10:44:20.076Z,9.63
2024-02-08T10:46:49.046Z,4.60
2024-02-08T10:49:24.994Z,5.17
2024-02-08T10:52:02.615Z,8.10
2024-02-08T10:54:45.513Z,6.75
2024-02-08T10:57:32.957Z,4.43
2024-02-08T11:00:01.448Z,4.65
2024-02-08T11:02:50.651Z,5.17
2024-02-08T11:05:44.673Z,5.18
2024-02-08T11:08:26.304Z,5.70
2024-02-08T11:11:05.385Z,5.25
2024-02-08T11:13:39.575Z,5.18
2024-02-08T11:16:35.323Z,5.70
2024-02-08T11:19:07.034Z,5.82
2024-02-08T11:21:46.273Z,5.10
2024-02-08T11:24:40.450Z,6.30
2024-02-08T11:27:08.862Z,4.50
2024-02-08T11:29:49.720Z,6.30
2024-02-08T11:32:21.973Z,4.70
2024-02-08T11:34:56.560Z,4.53
2024-02-08T11:37:32.836Z,5.57
2024-02-08T11:40:03.253Z,5.88
2024-02-08T11:42:38.797Z,6.30
2024-02-08T11:45:10.899Z,7.55
2024-02-08T11:47:43.483Z,7.72
2024-02-08T11:50:22.982Z,6.45
2024-02-08T11:53:01.123Z,8.00
2024-02-08T11:55:32.706Z,7.47
2024-02-08T11:58:13.632Z,6.95
2024-02-08T12:00:50.963Z,23.23
2024-02-08T12:03:19.431Z,10.00
2024-02-08T12:05:58.996Z,7.00
2024-02-08T12:08:36.737Z,9.83
2024-02-08T12:11:08.753Z,5.70
2024-02-08T12:13:40.903Z,6.15
2024-02-08T12:16:09.028Z,6.03
2024-02-08T12:18:38.060Z,25.02
2024-02-08T12:21:13.084Z,19.13
2024-02-08T12:23:42.799Z,5.82
2024-02-08T12:26:13.605Z,4.90
2024-02-08T12:28:45.029Z,4.78
2024-02-08T12:31:20.051Z,5.53
2024-02-08T12:33:53.953Z,6.47
2024-02-08T12:36:25.130Z,4.97
2024-02-08T12:38:56.662Z,5.45
2024-02-08T12:41:25.537Z,5.68
2024-02-08T12:43:54.355Z,6.15
2024-02-08T12:46:22.670Z,7.00
2024-02-08T12:48:51.414Z,7.57
2024-02-08T12:51:24.839Z,8.32
2024-02-08T12:53:59.756Z,8.10
2024-02-08T12:56:27.600Z,7.30
2024-02-08T12:59:05.582Z,9.80
2024-02-08T13:01:40.871Z,8.13
2024-02-08T13:04:09.376Z,6.97
2024-02-08T13:06:38.179Z,7.15
2024-02-08T13:09:39.247Z,6.78
2024-02-08T13:12:18.969Z,7.53
2024-02-08T13:14:50.172Z,20.35
2024-02-08T13:17:22.013Z,11.68
2024-02-08T13:19:57.430Z,10.23
2024-02-08T13:22:35.199Z,6.40
2024-02-08T13:25:04.946Z,3.97
2024-02-08T13:27:32.913Z,4.85
2024-02-08T13:30:01.565Z,4.43
2024-02-08T13:32:31.216Z,8.57
2024-02-08T13:35:02.535Z,4.00
2024-02-08T13:37:30.570Z,4.47
2024-02-08T13:40:02.014Z,3.25
2024-02-08T13:42:43.281Z,3.60
2024-02-08T13:45:27.515Z,5.13
2024-02-08T13:47:59.380Z,6.22
2024-02-08T13:50:32.969Z,4.67
2024-02-08T13:53:04.202Z,4.72
2024-02-08T13:58:08.740Z,4.60
2024-02-08T14:00:37.621Z,4.68
2024-02-08T14:03:05.834Z,4.63
2024-02-08T14:05:42.049Z,4.50
2024-02-08T14:08:19.426Z,8.35
2024-02-08T14:10:47.898Z,6.35
2024-02-08T14:13:20.591Z,6.45
2024-02-08T14:15:50.299Z,6.20
2024-02-08T14:18:28.937Z,4.75
2024-02-08T14:21:01.984Z,4.72
2024-02-08T14:23:34.631Z,3.50
2024-02-08T14:26:09.715Z,3.72
2024-02-08T14:28:49.043Z,3.50
2024-02-08T14:31:18.461Z,2.97
2024-02-08T14:33:57.021Z,3.78
2024-02-08T14:36:29.896Z,5.25
2024-02-08T14:38:57.478Z,3.47
2024-02-08T14:41:35.426Z,2.80
2024-02-08T14:44:08.424Z,4.20
2024-02-08T14:46:42.412Z,4.82
2024-02-08T14:49:28.476Z,4.13
2024-02-08T14:52:16.988Z,3.45
2024-02-08T14:54:44.904Z,4.13
2024-02-08T14:57:21.416Z,4.65
2024-02-08T14:59:53.779Z,5.15
2024-02-08T15:02:24.597Z,3.70
2024-02-08T15:05:02.435Z,3.67
2024-02-08T15:07:50.360Z,4.50
2024-02-08T15:10:23.148Z,4.25
2024-02-08T15:12:58.798Z,4.55
2024-02-08T15:15:35.569Z,4.05
2024-02-08T15:18:14.651Z,4.20
2024-02-08T15:20:48.555Z,4.90
2024-02-08T15:23:50.589Z,3.85
2024-02-08T15:26:27.418Z,5.32
2024-02-08T15:29:01.108Z,4.00
2024-02-08T15:31:41.207Z,4.07
2024-02-08T15:34:21.328Z,3.80
2024-02-08T15:36:50.218Z,3.78
2024-02-08T15:39:37.591Z,3.75
2024-02-08T15:42:20.064Z,6.20
2024-02-08T15:44:54.969Z,5.57
2024-02-08T15:47:23.058Z,5.93
2024-02-08T15:49:56.493Z,5.05
2024-02-08T15:52:30.348Z,5.45
2024-02-08T15:55:06.506Z,4.32
2024-02-08T15:57:34.622Z,6.22
2024-02-08T16:00:28.973Z,7.03
2024-02-08T16:03:04.020Z,5.93
2024-02-08T16:05:46.457Z,6.03
2024-02-08T16:08:15.668Z,4.50
2024-02-08T16:10:46.677Z,22.13
2024-02-08T16:13:15.399Z,26.80
2024-02-08T16:15:58.522Z,44.97
2024-02-08T16:18:27.628Z,14.13
2024-02-08T16:20:57.087Z,16.98
2024-02-08T16:23:48.045Z,5.80
2024-02-08T16:26:16.476Z,6.43
2024-02-08T16:28:47.298Z,5.90
2024-02-08T16:31:18.389Z,14.00
2024-02-08T16:33:46.418Z,6.57
2024-02-08T16:36:30.859Z,8.50
2024-02-08T16:39:16.196Z,10.48
2024-02-08T16:42:02.424Z,8.10
2024-02-08T16:44:32.270Z,9.18
2024-02-08T16:47:12.089Z,6.03
2024-02-08T16:49:45.728Z,7.00
2024-02-08T16:52:23.847Z,8.77
2024-02-08T16:55:01.792Z,8.85
2024-02-08T16:57:33.722Z,9.38
2024-02-08T17:00:20.064Z,9.75
2024-02-08T17:03:06.893Z,6.47
2024-02-08T17:05:51.093Z,5.90
2024-02-08T17:08:23.108Z,7.00
2024-02-08T17:11:03.966Z,6.50
2024-02-08T17:13:46.090Z,6.28
2024-02-08T17:16:37.588Z,6.90
2024-02-08T17:19:31.731Z,7.32
2024-02-08T17:22:08.671Z,6.13
2024-02-08T17:24:42.682Z,6.80
2024-02-08T17:27:29.018Z,7.28
2024-02-08T17:30:06.640Z,6.90
2024-02-08T17:32:34.560Z,7.03
2024-02-08T17:35:02.954Z,9.50
2024-02-08T17:37:39.852Z,9.82
2024-02-08T17:40:21.169Z,11.65
2024-02-08T17:43:00.489Z,12.00
2024-02-08T17:45:47.852Z,12.40
2024-02-08T17:48:16.106Z,11.77
2024-02-08T17:50:52.872Z,9.27
2024-02-08T17:53:23.775Z,9.13
2024-02-08T17:55:52.418Z,9.70
2024-02-08T17:58:24.428Z,9.02
2024-02-08T18:00:52.830Z,9.38
2024-02-08T18:03:29.434Z,8.77
2024-02-08T18:05:57.738Z,11.15
2024-02-08T18:08:25.571Z,14.75
2024-02-08T18:10:53.553Z,10.63
2024-02-08T18:13:28.220Z,11.07
2024-02-08T18:15:58.759Z,10.00
2024-02-08T18:18:26.723Z,9.57
2024-02-08T18:20:59.589Z,10.88
2024-02-08T18:23:34.606Z,9.98
2024-02-08T18:26:13.649Z,9.00
2024-02-08T18:28:41.706Z,8.65
2024-02-08T18:31:09.659Z,6.82
2024-02-08T18:33:39.375Z,8.43
2024-02-08T18:36:09.507Z,9.05
2024-02-08T18:38:37.142Z,6.13
2024-02-08T18:41:07.859Z,8.40
2024-02-08T18:43:36.971Z,6.28
2024-02-08T18:46:08.210Z,6.43
2024-02-08T18:48:49.878Z,6.77
2024-02-08T18:51:18.623Z,7.30
2024-02-08T18:53:46.408Z,7.50
2024-02-08T18:56:20.027Z,6.57
2024-02-08T18:58:53.594Z,6.47
2024-02-08T19:01:22.688Z,6.63
2024-02-08T19:09:21.252Z,7.40
2024-02-08T19:11:53.268Z,6.20
2024-02-08T19:14:24.386Z,6.30
2024-02-08T19:16:52.765Z,6.05
2024-02-08T19:19:24.971Z,6.78
2024-02-08T19:21:55.719Z,6.20
2024-02-08T19:24:23.996Z,6.60
2024-02-08T19:26:52.325Z,5.05
2024-02-08T19:29:25.899Z,6.45
2024-02-08T19:31:54.491Z,5.83
2024-02-08T19:34:23.829Z,6.65
2024-02-08T19:36:54.613Z,6.60
2024-02-08T19:39:48.806Z,6.78
2024-02-08T19:42:24.154Z,7.72
2024-02-08T19:44:58.560Z,9.23
2024-02-08T19:47:30.156Z,7.20
2024-02-08T19:50:08.213Z,6.50
2024-02-08T19:52:47.039Z,5.93
2024-02-08T19:55:38.259Z,8.70
2024-02-08T19:58:12.523Z,6.37
2024-02-08T20:00:50.448Z,4.97
2024-02-08T20:03:28.563Z,4.90
2024-02-08T20:06:01.165Z,5.82
2024-02-08T20:08:31.918Z,5.03
2024-02-08T20:11:03.591Z,6.00
2024-02-08T20:13:32.247Z,6.13
2024-02-08T20:16:07.786Z,5.90
2024-02-08T20:18:49.763Z,5.82
2024-02-08T20:21:21.051Z,6.88
2024-02-08T20:23:53.108Z,6.87
2024-02-08T20:26:29.241Z,9.65
2024-02-08T20:28:57.767Z,8.20
2024-02-08T20:31:25.978Z,8.90
2024-02-08T20:33:57.958Z,11.15
2024-02-08T20:36:26.763Z,12.27
2024-02-08T20:38:55.961Z,13.02
2024-02-08T20:41:25.262Z,13.00
2024-02-08T20:43:57.289Z,15.02
2024-02-08T20:46:28.311Z,12.98
2024-02-08T20:48:57.748Z,11.20
2024-02-08T20:51:30.447Z,10.82
2024-02-08T20:53:59.396Z,12.20
2024-02-08T20:56:30.139Z,9.52
2024-02-08T20:58:58.549Z,6.78
2024-02-08T21:01:26.974Z,7.38
2024-02-08T21:03:58.028Z,8.05
2024-02-08T21:06:26.668Z,5.75
2024-02-08T21:08:55.297Z,8.98
2024-02-08T21:11:23.205Z,7.38
2024-02-08T21:13:56.381Z,13.27
2024-02-08T21:16:24.378Z,11.00
2024-02-08T21:18:52.620Z,7.85
2024-02-08T21:21:20.703Z,4.40
2024-02-08T21:23:48.734Z,6.80
2024-02-08T21:26:16.728Z,6.47
2024-02-08T21:28:49.172Z,5.72
2024-02-08T21:31:20.327Z,6.32
2024-02-08T21:33:51.697Z,6.13
2024-02-08T21:36:22.626Z,5.70
2024-02-08T21:38:52.293Z,5.85
2024-02-08T21:41:20.143Z,6.53
2024-02-08T21:43:52.101Z,7.80
2024-02-08T21:46:22.958Z,8.30
2024-02-08T21:48:52.061Z,8.32
2024-02-08T21:51:19.800Z,8.55
2024-02-08T21:53:49.883Z,8.40
2024-02-08T21:56:20.410Z,7.43
2024-02-08T21:58:49.080Z,7.57
2024-02-08T22:01:36.509Z,7.47
2024-02-08T22:04:05.741Z,6.32
2024-02-08T22:06:35.098Z,8.05
2024-02-08T22:09:11.351Z,6.38
2024-02-08T22:12:06.235Z,7.20
2024-02-08T22:14:35.911Z,7.45
2024-02-08T22:17:10.192Z,7.38
2024-02-08T22:19:45.160Z,8.80
2024-02-08T22:22:15.267Z,6.18
2024-02-08T22:24:43.398Z,6.32
2024-02-08T22:27:11.785Z,6.40
2024-02-08T22:29:40.216Z,6.22
2024-02-08T22:32:08.697Z,6.07
2024-02-08T22:34:37.005Z,6.70
2024-02-08T22:37:06.291Z,7.43
2024-02-08T22:39:34.378Z,7.70
2024-02-08T22:42:02.331Z,6.40
2024-02-08T22:44:31.367Z,7.03
2024-02-08T22:46:59.587Z,9.35
2024-02-08T22:49:28.297Z,11.32
2024-02-08T22:51:56.197Z,13.43
2024-02-08T22:54:25.489Z,10.57
2024-02-08T22:56:53.474Z,13.20
2024-02-08T22:59:21.744Z,13.25
2024-02-08T23:01:56.568Z,10.60
2024-02-08T23:04:24.976Z,10.00
2024-02-08T23:06:53.335Z,8.63
2024-02-08T23:09:21.750Z,8.98
2024-02-08T23:11:52.563Z,7.85
2024-02-08T23:14:20.910Z,7.50
2024-02-08T23:16:53.148Z,6.60
2024-02-08T23:19:21.826Z,7.20
2024-02-08T23:21:59.030Z,11.02
2024-02-08T23:24:32.018Z,12.70
2024-02-08T23:27:00.715Z,14.02
2024-02-08T23:29:29.985Z,10.95
2024-02-08T23:31:57.829Z,9.75
2024-02-08T23:34:26.068Z,9.40
2024-02-08T23:36:56.414Z,8.90
2024-02-08T23:39:29.425Z,7.95
2024-02-08T23:42:00.294Z,8.30
2024-02-08T23:44:31.199Z,10.20
2024-02-08T23:46:59.817Z,8.77
2024-02-08T23:49:48.753Z,9.68
2024-02-08T23:52:16.594Z,8.88
2024-02-08T23:54:45.308Z,8.60
2024-02-08T23:57:16.437Z,9.43
2024-02-08T23:59:48.804Z,9.27
